Time;durP1;ratioP1;P1;durP2;ratioP2;P2;SDS_P1;SDS_P2;PMS_P1;PMS_P2;Temp;Humidity;BMP_temperature;BMP_pressure;BME280_temperature;BME280_humidity;BME280_pressure;Samples;Min_cycle;Max_cycle;Signal;HPM_P1;HPM_P2
2023/04/22 00:00:25;;;;;;;3.30;3.00;;;12.50;99.90;;;;;;4987563;28;20180;-65
2023/04/22 00:02:51;;;;;;;3.95;3.10;;;12.40;99.90;;;;;;5003216;28;20233;-65
2023/04/22 00:05:19;;;;;;;4.22;3.40;;;12.40;99.90;;;;;;5011785;28;20187;-65
2023/04/22 00:07:45;;;;;;;3.67;3.00;;;12.40;99.90;;;;;;5009969;28;20198;-65
2023/04/22 00:10:10;;;;;;;3.67;3.08;;;12.50;99.90;;;;;;5004566;28;20183;-65
2023/04/22 00:12:39;;;;;;;4.13;3.20;;;12.40;99.90;;;;;;4997009;28;20183;-65
2023/04/22 00:15:05;;;;;;;4.43;3.35;;;12.40;99.90;;;;;;5014642;28;20222;-65
2023/04/22 00:17:33;;;;;;;4.43;3.25;;;12.40;99.90;;;;;;4999372;28;20190;-66
2023/04/22 00:20:00;;;;;;;4.00;3.15;;;12.40;99.90;;;;;;5017022;28;20177;-67
2023/04/22 00:22:26;;;;;;;3.70;3.35;;;12.30;99.90;;;;;;5003830;28;20207;-64
2023/04/22 00:24:53;;;;;;;4.22;3.15;;;12.30;99.90;;;;;;4996173;28;20175;-66
2023/04/22 00:27:19;;;;;;;3.63;3.10;;;12.40;99.90;;;;;;5014805;28;20229;-66
2023/04/22 00:29:47;;;;;;;4.57;3.33;;;12.30;99.90;;;;;;4999687;28;20219;-66
2023/04/22 00:32:13;;;;;;;4.03;3.22;;;12.30;99.90;;;;;;5011980;28;20175;-65
2023/04/22 00:34:38;;;;;;;3.58;3.05;;;12.30;99.90;;;;;;4997360;28;20368;-65
2023/04/22 00:37:06;;;;;;;4.18;2.83;;;12.30;99.90;;;;;;4994735;28;20203;-66
2023/04/22 00:39:38;;;;;;;3.35;2.80;;;12.30;99.90;;;;;;4996603;28;20175;-66
2023/04/22 00:42:05;;;;;;;3.28;2.95;;;12.30;99.90;;;;;;5015644;28;20182;-66
2023/04/22 00:44:31;;;;;;;3.72;3.30;;;12.20;99.90;;;;;;4998336;28;20195;-65
2023/04/22 00:47:00;;;;;;;4.25;3.58;;;12.30;99.90;;;;;;4999776;28;20190;-65
2023/04/22 00:49:29;;;;;;;5.20;3.50;;;12.30;99.90;;;;;;4997832;28;20233;-65
2023/04/22 00:51:57;;;;;;;3.50;3.10;;;12.30;99.90;;;;;;4993696;28;20260;-66
2023/04/22 00:54:25;;;;;;;4.63;3.50;;;12.30;99.90;;;;;;5000005;28;20508;-66
2023/04/22 00:56:51;;;;;;;3.75;3.03;;;12.30;99.90;;;;;;5014449;28;20310;-65
2023/04/22 00:59:16;;;;;;;3.90;3.15;;;12.30;99.90;;;;;;4997548;28;20273;-65
2023/04/22 01:01:43;;;;;;;5.35;3.53;;;12.30;99.90;;;;;;5016984;28;20197;-66
2023/04/22 01:04:11;;;;;;;4.57;3.22;;;12.40;99.90;;;;;;5015621;28;20196;-65
2023/04/22 01:06:38;;;;;;;3.97;3.05;;;12.40;99.90;;;;;;5000547;28;20186;-65
2023/04/22 01:09:06;;;;;;;3.83;3.00;;;12.40;99.90;;;;;;5010123;28;20198;-65
2023/04/22 01:11:37;;;;;;;4.35;3.25;;;12.40;99.90;;;;;;5014036;28;20222;-66
2023/04/22 01:14:04;;;;;;;4.95;3.60;;;12.50;99.90;;;;;;5013774;28;20174;-65
2023/04/22 01:16:32;;;;;;;5.18;3.17;;;12.50;99.90;;;;;;5001283;28;20170;-65
2023/04/22 01:18:58;;;;;;;4.30;3.20;;;12.50;99.90;;;;;;4999320;28;20191;-65
2023/04/22 01:21:25;;;;;;;5.05;3.15;;;12.50;99.90;;;;;;4999085;28;20200;-65
2023/04/22 01:23:54;;;;;;;3.78;3.38;;;12.60;99.90;;;;;;5011765;28;20171;-64
2023/04/22 01:26:19;;;;;;;4.43;3.60;;;12.60;99.90;;;;;;5014640;28;20218;-64
2023/04/22 01:28:45;;;;;;;4.45;3.55;;;12.60;99.90;;;;;;5013930;28;20225;-64
2023/04/22 01:31:11;;;;;;;8.07;3.95;;;12.60;99.90;;;;;;4999601;28;20171;-65
2023/04/22 01:33:40;;;;;;;4.20;3.50;;;12.60;99.90;;;;;;4996038;28;20266;-65
2023/04/22 01:36:08;;;;;;;3.40;3.10;;;12.60;99.90;;;;;;5000125;28;20176;-65
2023/04/22 01:38:33;;;;;;;3.60;3.03;;;12.60;99.90;;;;;;4996367;28;20206;-64
2023/04/22 01:41:01;;;;;;;3.55;2.70;;;12.60;99.90;;;;;;5000123;28;20221;-65
2023/04/22 01:43:27;;;;;;;3.53;2.60;;;12.60;99.90;;;;;;4999033;28;20174;-65
2023/04/22 01:45:53;;;;;;;3.28;2.58;;;12.60;99.90;;;;;;5020630;28;20212;-65
2023/04/22 01:48:19;;;;;;;2.80;2.33;;;12.70;99.90;;;;;;5004199;28;20229;-64
2023/04/22 01:50:44;;;;;;;2.50;2.30;;;12.70;99.90;;;;;;5014660;28;20239;-66
2023/04/22 01:53:10;;;;;;;3.03;2.20;;;12.70;99.90;;;;;;4998026;28;20174;-65
2023/04/22 01:55:38;;;;;;;3.38;2.50;;;12.80;99.90;;;;;;4995472;28;20168;-65
2023/04/22 01:58:08;;;;;;;2.55;2.15;;;12.80;99.90;;;;;;5009441;28;20438;-65
2023/04/22 02:00:33;;;;;;;2.70;2.25;;;12.80;99.90;;;;;;4994797;28;20194;-65
2023/04/22 02:02:59;;;;;;;2.30;2.05;;;12.90;99.90;;;;;;4998309;28;20179;-67
2023/04/22 02:05:25;;;;;;;4.13;2.50;;;13.00;99.90;;;;;;4999414;28;20182;-65
2023/04/22 02:07:52;;;;;;;2.42;2.10;;;13.00;99.90;;;;;;5012779;28;22173;-65
2023/04/22 02:10:18;;;;;;;3.50;2.40;;;13.10;99.90;;;;;;4997216;28;20258;-66
2023/04/22 02:12:44;;;;;;;2.97;2.40;;;13.10;99.90;;;;;;5002822;28;20294;-65
2023/04/22 02:15:15;;;;;;;4.05;2.40;;;13.10;99.90;;;;;;4996424;28;20327;-65
2023/04/22 02:17:44;;;;;;;2.83;2.42;;;13.20;99.90;;;;;;4996031;28;20172;-67
2023/04/22 02:20:10;;;;;;;2.70;2.28;;;13.20;99.90;;;;;;5009227;28;20179;-66
2023/04/22 02:22:36;;;;;;;2.13;1.90;;;13.20;99.90;;;;;;5012763;28;20175;-66
2023/04/22 02:25:03;;;;;;;3.15;2.20;;;13.20;99.90;;;;;;5000782;28;20178;-67
2023/04/22 02:27:29;;;;;;;2.50;1.98;;;13.20;99.90;;;;;;4999313;28;20219;-65
2023/04/22 02:29:54;;;;;;;2.25;1.95;;;13.20;99.90;;;;;;5010646;28;20230;-66
2023/04/22 02:32:20;;;;;;;2.58;2.10;;;13.20;99.90;;;;;;5004002;28;20272;-66
2023/04/22 02:34:47;;;;;;;4.85;2.00;;;13.20;99.90;;;;;;4993722;28;20213;-66
2023/04/22 02:37:19;;;;;;;2.63;2.00;;;13.30;99.90;;;;;;5009769;28;20202;-65
2023/04/22 02:39:45;;;;;;;2.42;2.22;;;13.30;99.90;;;;;;5011530;28;20175;-65
2023/04/22 02:42:10;;;;;;;2.58;2.03;;;13.30;99.90;;;;;;4996948;28;20225;-65
2023/04/22 02:44:36;;;;;;;2.60;2.13;;;13.30;99.90;;;;;;5007928;28;20210;-65
2023/04/22 02:47:02;;;;;;;2.47;2.28;;;13.30;99.90;;;;;;4987844;28;20197;-65
2023/04/22 02:49:28;;;;;;;3.75;2.45;;;13.20;99.90;;;;;;5006189;28;20358;-64
2023/04/22 02:51:58;;;;;;;2.35;2.03;;;13.20;99.90;;;;;;5007828;28;20174;-65
2023/04/22 02:54:26;;;;;;;3.95;2.40;;;13.20;99.90;;;;;;5014129;28;20185;-65
2023/04/22 02:56:52;;;;;;;4.63;2.55;;;13.20;99.90;;;;;;5005478;28;20191;-66
2023/04/22 02:59:17;;;;;;;2.38;2.03;;;13.20;99.90;;;;;;5010711;28;20186;-65
2023/04/22 03:01:46;;;;;;;2.63;2.42;;;13.20;99.90;;;;;;4991118;28;20274;-66
2023/04/22 03:04:12;;;;;;;3.67;2.30;;;13.20;99.90;;;;;;4994179;28;20183;-65
2023/04/22 03:06:38;;;;;;;2.55;2.17;;;13.20;99.90;;;;;;4995816;28;20183;-66
2023/04/22 03:09:04;;;;;;;2.47;2.28;;;13.20;99.90;;;;;;4998265;28;20221;-65
2023/04/22 03:11:30;;;;;;;3.08;2.20;;;13.40;99.90;;;;;;5010112;28;20175;-66
2023/04/22 03:13:55;;;;;;;2.40;2.10;;;13.20;99.90;;;;;;5012808;28;20182;-65
2023/04/22 03:16:23;;;;;;;2.47;2.08;;;13.20;99.90;;;;;;5007308;28;20194;-66
2023/04/22 03:18:51;;;;;;;2.50;2.30;;;13.20;99.90;;;;;;4994036;28;20201;-65
2023/04/22 03:21:16;;;;;;;4.40;2.17;;;13.20;99.90;;;;;;5000921;28;20184;-66
2023/04/22 03:23:42;;;;;;;2.40;1.92;;;13.20;99.90;;;;;;4998073;28;20206;-65
2023/04/22 03:26:07;;;;;;;2.25;2.00;;;13.30;99.90;;;;;;5000940;28;20209;-65
2023/04/22 03:28:33;;;;;;;3.03;2.40;;;13.30;99.90;;;;;;5014651;28;20210;-67
2023/04/22 03:31:01;;;;;;;2.50;2.30;;;13.30;99.90;;;;;;5011841;28;20181;-66
2023/04/22 03:33:27;;;;;;;4.57;2.63;;;13.20;99.90;;;;;;4997972;28;20181;-65
2023/04/22 03:35:53;;;;;;;2.83;2.20;;;13.20;99.90;;;;;;4998057;28;20190;-65
2023/04/22 03:38:21;;;;;;;3.13;2.35;;;13.20;99.90;;;;;;5003660;28;20182;-65
2023/04/22 03:40:47;;;;;;;2.80;2.40;;;13.20;99.90;;;;;;5006620;28;20394;-67
2023/04/22 03:43:13;;;;;;;2.53;2.20;;;13.20;99.90;;;;;;4994266;28;20195;-65
2023/04/22 03:45:38;;;;;;;2.45;2.10;;;13.10;99.90;;;;;;4995577;28;20228;-64
2023/04/22 03:48:06;;;;;;;2.85;2.35;;;13.10;99.90;;;;;;5001183;28;20213;-64
2023/04/22 03:50:32;;;;;;;3.25;2.42;;;13.10;99.90;;;;;;5009127;28;20187;-66
2023/04/22 03:52:58;;;;;;;2.97;2.38;;;13.00;99.90;;;;;;5001204;28;20185;-65
2023/04/22 03:55:26;;;;;;;2.78;2.20;;;13.10;99.90;;;;;;5000355;28;20270;-66
2023/04/22 03:57:51;;;;;;;2.97;2.15;;;13.00;99.90;;;;;;5017935;28;20182;-66
2023/04/22 04:00:17;;;;;;;2.90;2.42;;;13.00;99.90;;;;;;5001240;28;20182;-66
2023/04/22 04:02:42;;;;;;;2.65;2.13;;;13.00;99.90;;;;;;5028708;28;20198;-65
2023/04/22 04:05:10;;;;;;;2.65;2.30;;;13.00;99.90;;;;;;5003651;28;20178;-66
2023/04/22 04:07:35;;;;;;;2.85;2.42;;;13.00;99.90;;;;;;5006959;28;20172;-65
2023/04/22 04:10:04;;;;;;;3.00;2.10;;;13.00;99.90;;;;;;5000450;28;20218;-66
2023/04/22 04:12:29;;;;;;;3.33;2.22;;;13.00;99.90;;;;;;5006880;28;20193;-64
2023/04/22 04:14:55;;;;;;;4.30;2.50;;;13.00;99.90;;;;;;5001261;28;20187;-66
2023/04/22 04:17:24;;;;;;;3.95;2.35;;;12.90;99.90;;;;;;5000467;28;20210;-64
2023/04/22 04:19:55;;;;;;;2.75;2.15;;;12.90;99.90;;;;;;4999607;28;20195;-64
2023/04/22 04:22:21;;;;;;;3.10;2.30;;;12.90;99.90;;;;;;5000960;28;20237;-65
2023/04/22 04:24:47;;;;;;;2.72;2.30;;;12.90;99.90;;;;;;4991990;28;20265;-66
2023/04/22 04:27:15;;;;;;;2.25;2.05;;;12.90;99.90;;;;;;4997294;28;20256;-65
2023/04/22 04:29:41;;;;;;;2.53;1.80;;;12.90;99.90;;;;;;4997967;28;20213;-65
2023/04/22 04:32:07;;;;;;;2.72;2.40;;;12.90;99.90;;;;;;5001691;28;20178;-66
2023/04/22 04:34:36;;;;;;;3.08;1.70;;;12.90;99.90;;;;;;4994312;28;20285;-66
2023/04/22 04:37:04;;;;;;;1.75;1.65;;;12.90;99.90;;;;;;5008031;28;20213;-63
2023/04/22 04:39:32;;;;;;;2.28;1.98;;;12.90;99.90;;;;;;5013807;28;20175;-65
2023/04/22 04:41:59;;;;;;;3.33;1.90;;;12.90;99.90;;;;;;5011677;28;20187;-63
2023/04/22 04:44:30;;;;;;;1.70;1.60;;;13.00;99.90;;;;;;5015983;28;20417;-65
2023/04/22 04:46:58;;;;;;;1.85;1.42;;;13.00;99.90;;;;;;4996593;28;20183;-66
2023/04/22 04:49:29;;;;;;;2.83;2.08;;;13.10;99.90;;;;;;4995493;28;20199;-65
2023/04/22 04:51:55;;;;;;;2.03;1.80;;;13.10;99.90;;;;;;5014169;28;20272;-65
2023/04/22 04:54:21;;;;;;;2.00;1.77;;;13.20;99.90;;;;;;4994992;28;20177;-64
2023/04/22 04:56:46;;;;;;;1.83;1.58;;;13.30;99.90;;;;;;4995638;28;20199;-66
2023/04/22 04:59:17;;;;;;;2.63;1.83;;;13.30;99.90;;;;;;5004124;28;20191;-67
2023/04/22 05:01:42;;;;;;;1.98;1.65;;;13.40;99.90;;;;;;5007401;28;20197;-66
2023/04/22 05:04:08;;;;;;;2.10;1.90;;;13.40;99.90;;;;;;4997694;28;20206;-66
2023/04/22 05:06:33;;;;;;;2.00;1.70;;;13.50;99.90;;;;;;5013870;28;20174;-66
2023/04/22 05:08:59;;;;;;;1.95;1.70;;;13.60;99.90;;;;;;5000577;28;20233;-66
2023/04/22 05:11:25;;;;;;;2.45;1.80;;;13.50;99.90;;;;;;5013484;28;20186;-66
2023/04/22 05:13:50;;;;;;;2.15;1.83;;;13.60;99.90;;;;;;4993165;28;20179;-65
2023/04/22 05:16:16;;;;;;;2.47;1.80;;;13.60;99.90;;;;;;5001613;28;20188;-66
2023/04/22 05:18:41;;;;;;;2.17;1.90;;;13.70;99.90;;;;;;4967203;28;1090615;-67
2023/04/22 05:21:07;;;;;;;2.15;1.60;;;13.70;99.90;;;;;;5012565;28;20175;-65
2023/04/22 05:23:33;;;;;;;2.28;1.83;;;13.70;99.90;;;;;;5016401;28;20228;-65
2023/04/22 05:26:00;;;;;;;1.92;1.60;;;13.80;99.90;;;;;;5015648;28;20178;-65
2023/04/22 05:28:26;;;;;;;1.55;1.42;;;13.90;99.90;;;;;;4997390;28;20206;-66
2023/04/22 05:30:52;;;;;;;2.08;1.50;;;13.90;99.90;;;;;;5013537;28;20171;-65
2023/04/22 05:33:19;;;;;;;2.15;1.50;;;14.00;99.90;;;;;;5019519;28;20198;-65
2023/04/22 05:35:45;;;;;;;2.00;1.80;;;14.10;99.90;;;;;;5017225;28;20170;-67
2023/04/22 05:38:13;;;;;;;2.17;1.55;;;14.10;99.90;;;;;;4999713;28;20193;-66
2023/04/22 05:40:39;;;;;;;2.20;1.70;;;14.20;99.90;;;;;;5011448;28;20290;-65
2023/04/22 05:43:05;;;;;;;2.08;1.80;;;14.20;99.90;;;;;;5010037;28;20216;-66
2023/04/22 05:45:30;;;;;;;4.50;1.77;;;14.30;99.90;;;;;;5011430;28;20193;-66
2023/04/22 05:48:01;;;;;;;1.75;1.65;;;14.30;99.90;;;;;;5020874;28;20507;-65
2023/04/22 05:50:29;;;;;;;2.63;1.50;;;14.40;99.90;;;;;;5000418;28;20195;-65
2023/04/22 05:52:54;;;;;;;1.92;1.55;;;14.40;99.90;;;;;;4995359;28;20181;-65
2023/04/22 05:55:22;;;;;;;2.22;1.75;;;14.50;99.90;;;;;;4997377;28;20201;-66
2023/04/22 05:57:50;;;;;;;2.10;1.88;;;14.50;99.90;;;;;;4999164;28;20190;-66
2023/04/22 06:00:16;;;;;;;2.45;1.73;;;14.50;99.90;;;;;;5005238;28;20183;-65
2023/04/22 06:02:42;;;;;;;1.70;1.60;;;14.60;99.90;;;;;;4999418;28;20206;-67
2023/04/22 06:05:08;;;;;;;1.85;1.50;;;14.60;99.90;;;;;;5016659;28;20179;-66
2023/04/22 06:07:36;;;;;;;3.35;1.90;;;14.60;99.90;;;;;;5002333;28;20250;-66
2023/04/22 06:10:02;;;;;;;2.60;1.90;;;14.60;99.90;;;;;;5009131;28;20221;-66
2023/04/22 06:12:29;;;;;;;2.20;2.00;;;14.70;99.90;;;;;;5014030;28;20167;-71
2023/04/22 06:14:55;;;;;;;2.35;1.88;;;14.70;99.90;;;;;;4995176;28;20167;-71
2023/04/22 06:17:20;;;;;;;3.33;2.00;;;14.80;99.90;;;;;;5013001;28;20191;-70
2023/04/22 06:19:46;;;;;;;4.65;1.83;;;14.70;99.90;;;;;;5007174;28;20298;-71
2023/04/22 06:22:12;;;;;;;2.72;1.98;;;14.80;99.90;;;;;;4998663;28;20265;-71
2023/04/22 06:24:37;;;;;;;2.40;2.05;;;14.80;99.90;;;;;;5004784;28;20210;-71
2023/04/22 06:27:05;;;;;;;2.13;1.92;;;14.80;99.90;;;;;;5013178;28;20182;-67
2023/04/22 06:29:31;;;;;;;2.20;1.92;;;14.90;99.90;;;;;;5016432;28;20209;-66
2023/04/22 06:31:56;;;;;;;2.75;1.83;;;14.90;99.90;;;;;;5003562;28;20186;-66
2023/04/22 06:34:22;;;;;;;1.80;1.65;;;14.90;99.90;;;;;;5015891;28;20202;-66
2023/04/22 06:36:48;;;;;;;2.53;1.70;;;14.90;99.90;;;;;;4997524;28;20175;-65
2023/04/22 06:39:13;;;;;;;2.55;1.70;;;15.00;99.90;;;;;;4990804;28;20193;-66
2023/04/22 06:41:39;;;;;;;2.03;1.58;;;15.00;99.90;;;;;;4989963;28;20250;-66
2023/04/22 06:44:07;;;;;;;2.85;2.55;;;15.00;99.90;;;;;;5014391;28;20205;-66
2023/04/22 06:46:35;;;;;;;2.60;1.95;;;15.10;99.90;;;;;;4996194;28;20225;-66
2023/04/22 06:49:01;;;;;;;2.15;1.80;;;15.20;99.90;;;;;;4992417;28;20194;-64
2023/04/22 06:51:27;;;;;;;2.05;1.60;;;15.30;99.90;;;;;;4998049;28;20209;-64
2023/04/22 06:53:52;;;;;;;2.30;1.55;;;15.40;99.90;;;;;;5000540;28;20167;-66
2023/04/22 06:56:18;;;;;;;2.70;1.67;;;15.50;99.90;;;;;;4998114;28;20175;-65
2023/04/22 06:58:44;;;;;;;2.20;1.90;;;15.60;99.90;;;;;;4993886;28;20195;-65
2023/04/22 07:01:11;;;;;;;1.83;1.60;;;15.70;99.90;;;;;;5014739;28;20170;-66
2023/04/22 07:03:37;;;;;;;2.35;1.95;;;15.80;99.90;;;;;;5014908;28;20288;-66
2023/04/22 07:06:03;;;;;;;3.20;1.95;;;15.80;99.90;;;;;;5009791;28;20187;-67
2023/04/22 07:08:29;;;;;;;1.67;1.58;;;15.90;99.90;;;;;;5004951;28;20218;-67
2023/04/22 07:10:56;;;;;;;2.22;1.70;;;15.90;99.90;;;;;;4996008;28;20183;-65
2023/04/22 07:13:22;;;;;;;2.30;1.67;;;15.90;99.90;;;;;;4995373;28;20285;-65
2023/04/22 07:15:49;;;;;;;2.08;1.70;;;16.00;99.90;;;;;;5011258;28;20202;-65
2023/04/22 07:18:15;;;;;;;2.13;1.60;;;16.00;99.90;;;;;;4998387;28;20194;-67
2023/04/22 07:20:41;;;;;;;1.58;1.42;;;16.10;99.90;;;;;;4997882;28;20247;-65
2023/04/22 07:23:07;;;;;;;1.80;1.55;;;16.10;99.90;;;;;;5014531;28;20249;-65
2023/04/22 07:25:32;;;;;;;2.00;1.70;;;16.20;99.90;;;;;;4997614;28;20192;-66
2023/04/22 07:28:00;;;;;;;2.00;1.80;;;16.30;99.90;;;;;;5004062;28;20225;-65
2023/04/22 07:30:25;;;;;;;1.90;1.70;;;16.30;99.90;;;;;;4998317;28;20206;-65
2023/04/22 07:32:51;;;;;;;3.35;2.10;;;16.40;99.90;;;;;;5004488;28;20210;-66
2023/04/22 07:35:17;;;;;;;2.70;2.17;;;16.50;99.90;;;;;;4996445;28;20182;-66
2023/04/22 07:37:43;;;;;;;2.65;1.60;;;16.50;99.90;;;;;;4995176;28;20199;-66
2023/04/22 07:40:10;;;;;;;2.17;1.98;;;16.60;99.90;;;;;;4980680;28;20179;-65
2023/04/22 07:42:39;;;;;;;5.03;2.13;;;16.70;99.90;;;;;;5010804;28;20172;-66
2023/04/22 07:45:08;;;;;;;3.78;2.08;;;16.70;99.90;;;;;;4982786;28;20210;-68
2023/04/22 07:47:33;;;;;;;1.75;1.55;;;16.80;99.90;;;;;;5012376;28;20185;-66
2023/04/22 07:49:59;;;;;;;2.45;1.70;;;16.80;99.90;;;;;;4992343;28;20194;-65
2023/04/22 07:52:25;;;;;;;1.60;1.50;;;16.90;99.90;;;;;;4997398;28;20197;-67
2023/04/22 07:54:50;;;;;;;1.98;1.70;;;17.00;99.90;;;;;;4996172;28;20266;-66
2023/04/22 07:57:20;;;;;;;2.35;1.50;;;17.10;99.90;;;;;;5006918;28;20265;-66
2023/04/22 07:59:48;;;;;;;2.55;1.67;;;17.20;99.90;;;;;;5010952;28;20233;-66
2023/04/22 08:02:14;;;;;;;2.72;1.65;;;17.30;99.90;;;;;;5001457;28;20175;-66
2023/04/22 08:04:42;;;;;;;1.92;1.60;;;17.40;99.90;;;;;;4999518;28;20190;-66
2023/04/22 08:07:08;;;;;;;2.80;1.63;;;17.50;99.90;;;;;;5009484;28;20209;-66
2023/04/22 08:09:36;;;;;;;2.63;1.77;;;17.60;99.90;;;;;;4997375;28;20191;-66
2023/04/22 08:12:04;;;;;;;1.92;1.55;;;17.70;99.90;;;;;;4997474;28;20253;-66
2023/04/22 08:14:29;;;;;;;1.73;1.50;;;17.80;99.90;;;;;;5006310;28;20179;-66
2023/04/22 08:16:55;;;;;;;1.40;1.20;;;17.90;99.90;;;;;;4997347;28;20198;-65
2023/04/22 08:19:23;;;;;;;5.00;1.80;;;18.10;99.90;;;;;;5011710;28;20195;-66
2023/04/22 08:21:50;;;;;;;1.55;1.40;;;18.20;99.90;;;;;;4994596;28;20217;-66
2023/04/22 08:24:16;;;;;;;1.58;1.33;;;18.30;99.90;;;;;;5013709;28;20181;-66
2023/04/22 08:26:50;;;;;;;1.75;1.42;;;18.40;99.90;;;;;;4997892;28;20210;-64
2023/04/22 08:29:18;;;;;;;3.75;1.50;;;18.60;99.90;;;;;;5006622;28;20284;-66
2023/04/22 08:31:45;;;;;;;4.05;1.30;;;18.70;99.90;;;;;;5024279;28;20202;-66
2023/04/22 08:34:14;;;;;;;1.30;1.02;;;18.90;99.90;;;;;;5001371;28;20238;-66
2023/04/22 08:36:39;;;;;;;1.77;1.38;;;19.00;99.90;;;;;;4999152;28;20243;-66
2023/04/22 08:39:05;;;;;;;1.83;1.40;;;19.10;99.90;;;;;;5017382;28;20171;-68
2023/04/22 08:41:33;;;;;;;2.00;1.52;;;19.30;99.90;;;;;;5008880;28;20186;-65
2023/04/22 08:44:02;;;;;;;2.13;1.50;;;19.40;99.90;;;;;;5020305;28;20229;-66
2023/04/22 08:46:31;;;;;;;1.83;1.40;;;19.50;99.90;;;;;;5001157;28;20198;-66
2023/04/22 08:49:02;;;;;;;2.05;1.30;;;19.50;99.90;;;;;;5010100;28;20209;-66
2023/04/22 08:51:32;;;;;;;2.70;1.70;;;19.60;99.90;;;;;;5015472;28;20391;-66
2023/04/22 08:53:58;;;;;;;2.00;1.35;;;19.60;99.90;;;;;;5000196;28;20190;-67
2023/04/22 08:56:24;;;;;;;1.40;1.30;;;19.70;99.90;;;;;;5000880;28;20255;-65
2023/04/22 08:58:51;;;;;;;1.77;1.40;;;19.80;99.90;;;;;;5001397;28;20207;-65
2023/04/22 09:01:17;;;;;;;2.13;1.33;;;19.80;99.90;;;;;;5001999;28;20215;-66
2023/04/22 09:03:43;;;;;;;2.50;1.20;;;19.90;99.90;;;;;;5006643;28;20222;-70
2023/04/22 09:06:12;;;;;;;1.55;1.30;;;19.90;99.90;;;;;;4997883;28;20244;-70
2023/04/22 09:08:40;;;;;;;1.35;1.20;;;20.00;99.90;;;;;;5013636;28;20209;-69
2023/04/22 09:11:06;;;;;;;2.15;1.50;;;20.00;99.90;;;;;;4993898;28;20176;-68
2023/04/22 09:13:34;;;;;;;1.60;1.35;;;20.00;99.90;;;;;;5010008;28;20179;-69
2023/04/22 09:16:00;;;;;;;1.50;1.30;;;20.10;99.90;;;;;;5016807;28;20198;-69
2023/04/22 09:18:25;;;;;;;1.83;1.30;;;20.10;99.90;;;;;;5001997;28;20283;-69
2023/04/22 09:20:56;;;;;;;1.98;1.35;;;20.10;99.90;;;;;;4997189;28;20208;-69
2023/04/22 09:23:22;;;;;;;2.08;1.58;;;20.20;99.90;;;;;;4997634;28;20207;-69
2023/04/22 09:25:48;;;;;;;1.60;1.20;;;20.20;99.90;;;;;;5014337;28;20174;-70
2023/04/22 09:28:18;;;;;;;2.47;1.40;;;20.30;99.90;;;;;;4998387;28;20190;-70
2023/04/22 09:30:45;;;;;;;2.03;1.30;;;20.30;99.90;;;;;;5011133;28;20168;-69
2023/04/22 09:33:14;;;;;;;3.58;1.60;;;20.40;99.90;;;;;;5013467;28;20270;-68
2023/04/22 09:35:41;;;;;;;1.40;1.30;;;20.40;99.90;;;;;;4998619;28;20270;-68
2023/04/22 09:38:09;;;;;;;3.03;1.50;;;20.50;99.90;;;;;;5008026;28;20238;-70
2023/04/22 09:40:36;;;;;;;1.83;1.48;;;20.60;99.90;;;;;;4996909;28;20217;-71
2023/04/22 09:43:06;;;;;;;2.42;1.40;;;20.70;99.90;;;;;;4996023;28;20179;-68
2023/04/22 09:45:37;;;;;;;1.70;1.40;;;20.80;99.90;;;;;;4995917;28;20226;-71
2023/04/22 09:48:08;;;;;;;3.33;1.50;;;20.90;99.90;;;;;;4995700;28;20214;-69
2023/04/22 09:50:34;;;;;;;2.40;1.50;;;21.00;99.90;;;;;;4980327;28;20168;-69
2023/04/22 09:53:03;;;;;;;2.28;1.70;;;21.10;99.90;;;;;;4996768;28;20175;-69
2023/04/22 09:55:32;;;;;;;2.17;1.23;;;21.20;99.90;;;;;;4995245;28;20338;-69
2023/04/22 09:58:03;;;;;;;2.88;1.55;;;21.20;99.90;;;;;;5016464;28;20265;-68
2023/04/22 10:00:30;;;;;;;1.73;1.42;;;21.30;99.90;;;;;;5015827;28;20170;-70
2023/04/22 10:02:55;;;;;;;2.30;1.40;;;21.40;99.90;;;;;;5006507;28;20200;-67
2023/04/22 10:05:28;;;;;;;2.08;1.40;;;21.40;99.90;;;;;;5015510;28;20269;-69
2023/04/22 10:07:54;;;;;;;1.88;1.30;;;21.50;99.90;;;;;;4997134;28;20179;-69
2023/04/22 10:10:23;;;;;;;1.92;1.30;;;21.70;99.90;;;;;;4999518;28;20229;-69
2023/04/22 10:12:50;;;;;;;2.38;1.40;;;21.90;99.90;;;;;;4995797;28;20190;-69
2023/04/22 10:15:18;;;;;;;1.85;1.60;;;22.20;99.90;;;;;;5008436;28;20186;-69
2023/04/22 10:17:45;;;;;;;2.08;1.42;;;22.40;99.90;;;;;;5008920;28;20187;-69
2023/04/22 10:20:18;;;;;;;2.25;1.50;;;22.40;99.90;;;;;;5012094;28;20202;-70
2023/04/22 10:22:46;;;;;;;3.47;2.00;;;22.40;99.90;;;;;;5009411;28;20174;-69
2023/04/22 10:25:24;;;;;;;3.88;1.60;;;22.30;99.90;;;;;;5013732;28;20282;-68
2023/04/22 10:28:04;;;;;;;2.47;1.55;;;22.20;99.90;;;;;;5011259;28;20271;-69
2023/04/22 10:30:32;;;;;;;2.30;1.63;;;22.20;99.90;;;;;;5010950;28;20182;-67
2023/04/22 10:33:19;;;;;;;2.47;1.52;;;22.20;99.90;;;;;;4997770;28;20313;-68
2023/04/22 10:36:04;;;;;;;2.50;1.40;;;22.20;99.90;;;;;;5006088;28;20171;-68
2023/04/22 10:38:33;;;;;;;2.30;1.40;;;22.30;99.90;;;;;;5001326;28;20205;-69
2023/04/22 10:40:59;;;;;;;1.60;1.40;;;22.30;99.90;;;;;;5014852;28;20264;-68
2023/04/22 10:43:42;;;;;;;1.27;1.10;;;22.40;99.90;;;;;;5000259;28;20183;-70
2023/04/22 10:46:41;;;;;;;1.70;1.20;;;22.50;99.90;;;;;;5006755;28;20217;-69
2023/04/22 10:49:12;;;;;;;2.78;1.13;;;22.60;99.90;;;;;;4978751;28;20266;-69
2023/04/22 10:51:39;;;;;;;2.45;1.48;;;22.60;99.90;;;;;;5014539;28;20236;-67
2023/04/22 10:54:25;;;;;;;2.40;1.45;;;22.60;99.90;;;;;;4979021;28;20179;-66
2023/04/22 10:57:02;;;;;;;2.15;1.20;;;22.50;99.90;;;;;;5009734;28;20174;-67
2023/04/22 10:59:30;;;;;;;1.90;1.40;;;22.50;99.90;;;;;;4995412;28;20179;-68
2023/04/22 11:02:09;;;;;;;1.60;1.30;;;22.50;99.90;;;;;;4997215;28;20179;-69
2023/04/22 11:04:36;;;;;;;2.67;1.30;;;22.50;99.90;;;;;;5007619;28;20424;-69
2023/04/22 11:07:25;;;;;;;2.63;1.40;;;22.50;99.90;;;;;;5011445;28;20183;-69
2023/04/22 11:10:06;;;;;;;2.13;1.52;;;22.60;99.90;;;;;;5012650;28;20204;-69
2023/04/22 11:12:38;;;;;;;3.22;1.48;;;22.70;99.80;;;;;;4978786;28;20242;-67
2023/04/22 11:15:09;;;;;;;2.05;1.40;;;22.80;99.90;;;;;;5006452;28;20186;-67
2023/04/22 11:17:36;;;;;;;1.83;1.40;;;22.80;99.70;;;;;;5004973;28;20254;-66
2023/04/22 11:20:04;;;;;;;2.22;1.48;;;22.90;99.90;;;;;;5009361;28;20187;-68
2023/04/22 11:22:34;;;;;;;3.80;2.95;;;22.80;99.90;;;;;;5010016;28;20198;-69
2023/04/22 11:25:04;;;;;;;5.38;2.33;;;22.80;99.50;;;;;;5000274;28;20188;-69
2023/04/22 11:27:30;;;;;;;3.35;1.60;;;22.80;99.90;;;;;;5002468;28;20202;-69
2023/04/22 11:30:17;;;;;;;2.65;1.40;;;22.80;99.90;;;;;;5010922;28;20242;-67
2023/04/22 11:32:47;;;;;;;2.13;1.60;;;22.90;99.90;;;;;;4979210;28;20190;-67
2023/04/22 11:35:23;;;;;;;2.40;1.70;;;22.90;98.50;;;;;;4995077;28;20187;-69
2023/04/22 11:37:57;;;;;;;2.00;1.70;;;22.90;99.10;;;;;;4994644;28;20191;-67
2023/04/22 11:40:36;;;;;;;2.70;1.10;;;22.90;99.20;;;;;;5000314;28;20178;-66
2023/04/22 11:43:04;;;;;;;2.78;1.67;;;22.90;99.10;;;;;;5013665;28;20240;-69
2023/04/22 11:45:31;;;;;;;2.15;1.50;;;22.90;98.70;;;;;;4994064;28;20196;-68
2023/04/22 11:48:00;;;;;;;1.77;1.40;;;22.80;98.50;;;;;;4984001;28;20226;-69
2023/04/22 11:50:37;;;;;;;1.80;1.30;;;22.80;99.00;;;;;;4995138;28;20174;-69
2023/04/22 11:53:12;;;;;;;2.28;1.70;;;22.80;97.90;;;;;;5009757;28;20170;-69
2023/04/22 11:55:39;;;;;;;1.92;1.40;;;22.80;99.40;;;;;;5010688;28;20198;-69
2023/04/22 11:58:04;;;;;;;2.63;1.73;;;22.80;99.40;;;;;;4994386;28;20202;-67
2023/04/22 12:00:36;;;;;;;2.28;1.45;;;22.80;99.00;;;;;;5007690;28;20167;-69
2023/04/22 12:03:03;;;;;;;1.58;1.40;;;22.80;99.70;;;;;;4992221;28;20210;-69
2023/04/22 12:05:46;;;;;;;2.15;1.30;;;22.90;99.70;;;;;;5007197;28;20282;-69
2023/04/22 12:08:18;;;;;;;2.92;1.70;;;22.90;98.80;;;;;;4996219;28;20179;-64
2023/04/22 12:10:57;;;;;;;3.45;1.70;;;23.00;99.60;;;;;;5017341;28;20197;-68
2023/04/22 12:13:24;;;;;;;2.83;1.45;;;23.10;99.40;;;;;;4997135;28;20179;-66
2023/04/22 12:16:16;;;;;;;1.50;1.33;;;23.10;99.90;;;;;;4999682;28;20174;-67
2023/04/22 12:18:54;;;;;;;2.05;1.60;;;23.20;98.30;;;;;;4982492;28;20258;-68
2023/04/22 12:21:22;;;;;;;2.97;1.70;;;23.20;99.00;;;;;;5006273;28;20282;-69
2023/04/22 12:23:53;;;;;;;3.28;1.65;;;23.10;99.10;;;;;;5014266;28;20178;-68
2023/04/22 12:26:23;;;;;;;2.50;1.90;;;23.10;98.90;;;;;;5001106;28;20198;-69
2023/04/22 12:28:50;;;;;;;1.58;1.40;;;23.00;98.90;;;;;;4993732;28;20236;-69
2023/04/22 12:31:16;;;;;;;2.63;1.60;;;23.00;99.50;;;;;;5009554;28;20252;-69
2023/04/22 12:33:46;;;;;;;3.53;1.50;;;22.90;99.00;;;;;;5011593;28;20246;-66
2023/04/22 12:36:12;;;;;;;2.10;1.35;;;22.90;99.20;;;;;;4999917;28;20170;-70
2023/04/22 12:38:38;;;;;;;2.75;1.63;;;23.00;99.60;;;;;;5007665;28;20300;-69
2023/04/22 12:41:05;;;;;;;2.40;1.90;;;23.00;99.90;;;;;;5008144;28;20234;-70
2023/04/22 12:43:34;;;;;;;2.03;1.48;;;23.10;99.90;;;;;;5008634;28;20186;-69
2023/04/22 12:45:59;;;;;;;2.33;1.40;;;23.20;99.90;;;;;;4992828;28;20203;-69
2023/04/22 12:48:25;;;;;;;2.33;1.38;;;23.20;99.20;;;;;;5012149;28;20469;-69
2023/04/22 12:50:51;;;;;;;1.85;1.15;;;23.20;99.40;;;;;;5000024;28;20195;-70